createdAt,value
2023-09-13T00:04:35.468Z,100645.75
2023-09-13T00:09:39.595Z,100661.00
2023-09-13T00:14:41.495Z,100667.50
2023-09-13T00:19:43.512Z,100667.94
2023-09-13T00:24:46.798Z,100661.69
2023-09-13T00:29:49.272Z,100671.94
2023-09-13T00:34:51.706Z,100682.88
2023-09-13T00:39:53.743Z,100675.47
2023-09-13T00:44:55.676Z,100673.91
2023-09-13T00:49:57.646Z,100684.72
2023-09-13T00:55:00.030Z,100683.00
2023-09-13T01:00:10.202Z,100681.00
2023-09-13T01:05:15.023Z,100684.41
2023-09-13T01:10:17.025Z,100689.13
2023-09-13T01:15:19.207Z,100697.78
2023-09-13T01:20:45.815Z,100691.81
2023-09-13T01:26:06.456Z,100693.81
2023-09-13T01:31:12.835Z,100695.66
2023-09-13T01:36:15.461Z,100702.88
2023-09-13T01:41:26.296Z,100697.22
2023-09-13T01:46:34.485Z,100702.63
2023-09-13T01:51:37.324Z,100705.59
2023-09-13T01:56:39.239Z,100701.06
2023-09-13T02:01:41.492Z,100701.63
2023-09-13T02:06:43.564Z,100714.13
2023-09-13T02:11:45.526Z,100726.22
2023-09-13T02:16:47.568Z,100727.19
2023-09-13T02:21:49.755Z,100728.16
2023-09-13T02:26:58.921Z,100741.44
2023-09-13T02:32:01.191Z,100737.59
2023-09-13T02:37:03.263Z,100744.13
2023-09-13T02:42:06.835Z,100736.59
2023-09-13T02:47:08.951Z,100738.72
2023-09-13T02:52:10.935Z,100743.28
2023-09-13T02:57:13.064Z,100739.72
2023-09-13T03:02:15.068Z,100750.38
2023-09-13T03:07:17.317Z,100752.94
2023-09-13T03:12:19.398Z,100748.69
2023-09-13T03:17:21.290Z,100756.22
2023-09-13T03:22:23.232Z,100750.94
2023-09-13T03:27:25.127Z,100771.84
2023-09-13T03:32:27.367Z,100774.81
2023-09-13T03:37:29.679Z,100779.22
2023-09-13T03:42:31.641Z,100780.22
2023-09-13T03:47:33.721Z,100795.56
2023-09-13T03:52:35.619Z,100784.78
2023-09-13T03:57:37.532Z,100791.91
2023-09-13T04:02:39.434Z,100790.44
2023-09-13T04:07:41.389Z,100788.59
2023-09-13T04:12:43.333Z,100790.28
2023-09-13T04:17:45.471Z,100783.31
2023-09-13T04:22:47.972Z,100779.63
2023-09-13T04:27:50.121Z,100786.88
2023-09-13T04:32:52.775Z,100786.88
2023-09-13T04:37:55.463Z,100780.34
2023-09-13T04:43:17.306Z,100793.97
2023-09-13T04:48:19.342Z,100786.88
2023-09-13T04:53:21.326Z,100792.97
2023-09-13T04:58:23.388Z,100791.28
2023-09-13T05:03:25.699Z,100805.50
2023-09-13T05:08:27.625Z,100814.03
2023-09-13T05:13:29.644Z,100824.41
2023-09-13T05:18:31.848Z,100816.56
2023-09-13T05:23:33.986Z,100826.38
2023-09-13T05:28:35.930Z,100826.13
2023-09-13T05:33:38.012Z,100833.09
2023-09-13T05:38:40.630Z,100842.72
2023-09-13T05:43:44.468Z,100852.97
2023-09-13T05:48:46.925Z,100852.09
2023-09-13T05:53:48.908Z,100862.63
2023-09-13T05:58:50.911Z,100863.63
2023-09-13T06:03:52.987Z,100862.75
2023-09-13T06:08:55.004Z,100878.13
2023-09-13T06:13:57.010Z,100883.22
2023-09-13T06:18:58.958Z,100887.06
2023-09-13T06:24:00.971Z,100886.34
2023-09-13T06:29:03.622Z,100904.56
2023-09-13T06:34:22.450Z,100894.50
2023-09-13T06:39:27.889Z,100889.22
2023-09-13T06:44:43.117Z,100896.78
2023-09-13T06:49:49.301Z,100892.78
2023-09-13T06:54:53.299Z,100893.91
2023-09-13T07:00:00.584Z,100904.75
2023-09-13T07:10:09.537Z,100903.88
2023-09-13T07:15:11.635Z,100904.16
2023-09-13T07:20:13.636Z,100921.91
2023-09-13T07:25:15.823Z,100917.28
2023-09-13T07:30:17.784Z,100918.69
2023-09-13T07:35:21.923Z,100927.31
2023-09-13T07:40:23.814Z,100930.41
2023-09-13T07:45:26.160Z,100936.88
2023-09-13T07:50:38.504Z,100938.38
2023-09-13T07:55:41.490Z,100949.91
2023-09-13T08:00:45.246Z,100946.28
2023-09-13T08:05:49.056Z,100942.31
2023-09-13T08:10:51.784Z,100955.75
2023-09-13T08:15:54.162Z,100974.56
2023-09-13T08:20:56.091Z,100969.63
2023-09-13T08:26:08.686Z,100975.28
2023-09-13T08:31:19.461Z,100985.63
2023-09-13T08:36:21.592Z,100989.91
2023-09-13T08:41:23.759Z,100998.84
2023-09-13T08:46:26.342Z,101008.44
2023-09-13T08:51:30.240Z,101003.63
2023-09-13T08:56:32.872Z,101013.22
2023-09-13T09:01:35.185Z,101008.44
2023-09-13T09:06:37.888Z,101022.78
2023-09-13T09:11:44.449Z,101019.75
2023-09-13T09:16:48.306Z,101040.19
2023-09-13T09:21:50.586Z,101034.34
2023-09-13T09:26:55.813Z,101036.78
2023-09-13T09:31:59.799Z,101033.72
2023-09-13T09:37:08.644Z,101037.81
2023-09-13T09:42:17.300Z,101039.13
2023-09-13T09:47:20.193Z,101044.00
2023-09-13T09:52:22.157Z,101044.72
2023-09-13T09:57:24.679Z,101042.97
2023-09-13T10:02:29.850Z,101050.41
2023-09-13T10:07:32.198Z,101044.44
2023-09-13T10:12:45.432Z,101047.63
2023-09-13T10:17:49.742Z,101048.38
2023-09-13T10:22:57.595Z,101056.69
2023-09-13T10:28:02.616Z,101051.03
2023-09-13T10:33:05.389Z,101054.72
2023-09-13T10:38:16.288Z,101051.03
2023-09-13T10:43:19.026Z,101052.66
2023-09-13T10:48:22.797Z,101086.56
2023-09-13T10:53:27.426Z,101113.28
2023-09-13T10:58:31.139Z,101130.31
2023-09-13T11:03:33.941Z,101126.97
2023-09-13T11:08:36.029Z,101142.56
2023-09-13T11:13:38.418Z,101159.22
2023-09-13T11:18:49.916Z,101158.59
2023-09-13T11:28:59.265Z,101167.16
2023-09-13T11:34:01.188Z,101166.81
2023-09-13T11:39:03.195Z,101176.72
2023-09-13T11:44:05.597Z,101189.44
2023-09-13T11:49:08.198Z,101191.56
2023-09-13T11:54:17.364Z,101199.16
2023-09-13T11:59:28.057Z,101224.47
2023-09-13T12:09:39.499Z,101238.94
2023-09-13T12:19:48.958Z,101240.06
2023-09-13T12:24:54.224Z,101250.69
2023-09-13T12:29:56.149Z,101257.81
2023-09-13T12:34:58.418Z,101260.50
2023-09-13T12:40:11.592Z,101262.56
2023-09-13T12:45:14.013Z,101276.88
2023-09-13T12:50:32.487Z,101271.03
2023-09-13T12:55:35.637Z,101272.75
2023-09-13T13:00:55.952Z,101280.31
2023-09-13T13:06:04.197Z,101274.19
2023-09-13T13:11:07.402Z,101283.00
2023-09-13T13:16:30.767Z,101287.91
2023-09-13T13:21:42.497Z,101287.69
2023-09-13T13:26:44.588Z,101291.59
2023-09-13T13:31:47.603Z,101290.63
2023-09-13T13:36:49.536Z,101290.63
2023-09-13T13:41:51.640Z,101291.84
2023-09-13T13:46:53.657Z,101291.56
2023-09-13T13:51:55.540Z,101290.75
2023-09-13T13:57:01.135Z,101296.25
2023-09-13T14:02:03.676Z,101299.91
2023-09-13T14:07:05.563Z,101300.81
2023-09-13T14:12:08.003Z,101307.25
2023-09-13T14:17:10.069Z,101308.88
2023-09-13T14:22:11.948Z,101311.59
2023-09-13T14:27:15.274Z,101313.91
2023-09-13T14:32:19.070Z,101314.88
2023-09-13T14:37:21.033Z,101326.38
2023-09-13T14:42:23.227Z,101316.72
2023-09-13T14:47:27.975Z,101321.00
2023-09-13T14:52:37.594Z,101315.75
2023-09-13T14:57:39.827Z,101320.03
2023-09-13T15:02:43.875Z,101320.03
2023-09-13T15:07:45.902Z,101329.81
2023-09-13T15:12:48.540Z,101332.66
2023-09-13T15:17:50.626Z,101328.13
2023-09-13T15:22:52.511Z,101337.91
2023-09-13T15:27:54.471Z,101334.94
2023-09-13T15:32:56.497Z,101328.97
2023-09-13T15:37:58.559Z,101338.41
2023-09-13T15:43:00.763Z,101346.84
2023-09-13T15:48:02.828Z,101343.28
2023-09-13T15:53:04.873Z,101354.31
2023-09-13T15:58:06.704Z,101343.06
2023-09-13T16:03:09.100Z,101349.41
2023-09-13T16:08:11.028Z,101340.38
2023-09-13T16:13:12.901Z,101353.34
2023-09-13T16:18:14.898Z,101346.97
2023-09-13T16:23:18.731Z,101342.19
2023-09-13T16:28:20.769Z,101344.50
2023-09-13T16:33:22.818Z,101360.19
2023-09-13T16:38:24.704Z,101366.69
2023-09-13T16:43:26.837Z,101354.69
2023-09-13T16:48:34.885Z,101360.31
2023-09-13T16:53:37.335Z,101369.75
2023-09-13T16:58:39.169Z,101368.91
2023-09-13T17:03:42.398Z,101367.91
2023-09-13T17:08:44.836Z,101370.75
2023-09-13T17:13:48.695Z,101375.03
2023-09-13T17:18:50.650Z,101376.53
2023-09-13T17:23:52.859Z,101381.66
2023-09-13T17:28:54.754Z,101395.13
2023-09-13T17:33:56.742Z,101387.16
2023-09-13T17:38:58.599Z,101398.94
2023-09-13T17:44:00.504Z,101397.19
2023-09-13T17:49:02.645Z,101406.75
2023-09-13T17:54:04.652Z,101407.38
2023-09-13T17:59:06.685Z,101421.22
2023-09-13T18:04:08.676Z,101426.00
2023-09-13T18:09:10.727Z,101428.09
2023-09-13T18:14:12.754Z,101431.53
2023-09-13T18:19:14.711Z,101437.03
2023-09-13T18:24:22.814Z,101448.56
2023-09-13T18:29:31.714Z,101461.28
2023-09-13T18:34:41.452Z,101462.34
2023-09-13T18:39:43.421Z,101478.38
2023-09-13T18:44:45.406Z,101470.50
2023-09-13T18:49:47.347Z,101478.03
2023-09-13T18:54:49.394Z,101483.19
2023-09-13T18:59:51.611Z,101490.16
2023-09-13T19:04:53.664Z,101501.84
2023-09-13T19:09:55.647Z,101507.34
2023-09-13T19:14:57.617Z,101509.66
2023-09-13T19:19:59.536Z,101510.53
2023-09-13T19:25:01.612Z,101514.94
2023-09-13T19:30:03.815Z,101513.97
2023-09-13T19:35:06.191Z,101516.16
2023-09-13T19:40:09.268Z,101515.06
2023-09-13T19:45:11.442Z,101521.22
2023-09-13T19:50:13.304Z,101513.59
2023-09-13T19:55:15.427Z,101526.72
2023-09-13T20:00:17.667Z,101526.09
2023-09-13T20:05:20.993Z,101526.84
2023-09-13T20:10:25.694Z,101525.63
2023-09-13T20:15:27.729Z,101532.50
2023-09-13T20:20:29.677Z,101534.25
2023-09-13T20:25:36.593Z,101542.09
2023-09-13T20:30:40.529Z,101542.00
2023-09-13T20:35:44.424Z,101541.00
2023-09-13T20:40:46.563Z,101546.75
2023-09-13T20:45:50.452Z,101549.22
2023-09-13T20:50:53.283Z,101550.41
2023-09-13T20:55:55.341Z,101552.16
2023-09-13T21:00:57.269Z,101547.72
2023-09-13T21:05:59.113Z,101541.13
2023-09-13T21:11:02.440Z,101542.59
2023-09-13T21:16:07.213Z,101542.50
2023-09-13T21:21:10.208Z,101538.22
2023-09-13T21:26:12.213Z,101545.31
2023-09-13T21:31:14.203Z,101559.31
2023-09-13T21:36:16.234Z,101568.34
2023-09-13T21:41:18.200Z,101563.72
2023-09-13T21:46:20.269Z,101567.63
2023-09-13T21:51:22.346Z,101571.06
2023-09-13T21:56:24.273Z,101571.06
2023-09-13T22:01:26.547Z,101571.78
2023-09-13T22:06:28.510Z,101569.25
2023-09-13T22:11:30.534Z,101571.31
2023-09-13T22:16:32.686Z,101571.94
2023-09-13T22:21:35.348Z,101570.31
2023-09-13T22:26:37.295Z,101571.06
2023-09-13T22:31:39.333Z,101559.94
2023-09-13T22:36:41.387Z,101570.00
2023-09-13T22:41:44.237Z,101577.94
2023-09-13T22:46:47.383Z,101574.75
2023-09-13T22:51:50.382Z,101575.69
2023-09-13T22:56:52.552Z,101592.53
2023-09-13T23:01:54.474Z,101589.81
2023-09-13T23:06:56.515Z,101571.41
2023-09-13T23:11:58.482Z,101573.88
2023-09-13T23:17:00.431Z,101580.88
2023-09-13T23:22:03.808Z,101577.44
2023-09-13T23:43:30.362Z,101580.34
2023-09-13T23:48:33.816Z,101581.22
2023-09-13T23:53:36.868Z,101579.38
2023-09-13T23:58:38.656Z,101579.13
